Station History

Weather Underground - logo

Station Historical Data
Daily Summary for August 2, 2017 Units:  English    Metric   Both
« Previous Day
Next Day »
Daily Weekly Monthly Yearly Custom
  High: Low: Average:
Temperature: 103.8 °F 76.5 °F 90.4 °F
Dew Point: 74.4 °F 57.8 °F 65.8 °F
Humidity: 68 % 26 % 47 %
Wind Speed: 5.8 mph 0.0 mph 0.7 mph
Wind Gust: 5.8 mph - -
Wind:- - SW
Pressure: 29.82 in 29.76 in -
Precipitation: 0.00 in    
Historical Graphs
 
 
Tabular Data for August 2, 2017
Time Temperature Dew Point Pressure Wind Wind Speed Wind Gust Humidity Rainfall Rate (Hourly)
00:04 84.4 °F 59.5 °F 29.77 in NW 1.2 mph 1.2 mph 43 % 0.00 in
00:09 84.7 °F 59.1 °F 29.77 in WNW 1.2 mph   42 % 0.00 in
00:14 84.7 °F 59.7 °F 29.77 in Calm     43 % 0.00 in
00:19 84.8 °F 57.8 °F 29.78 in NNW 1.2 mph   40 % 0.00 in
00:24 84.9 °F 58.6 °F 29.78 in Calm     41 % 0.00 in
00:29 84.6 °F 60.9 °F 29.77 in Calm     45 % 0.00 in
00:34 84.3 °F 59.4 °F 29.77 in NNW 1.2 mph 1.2 mph 43 % 0.00 in
00:39 84.7 °F 59.1 °F 29.77 in NNW 1.0 mph   42 % 0.00 in
00:44 84.8 °F 60.5 °F 29.77 in Calm     44 % 0.00 in
00:49 84.5 °F 58.9 °F 29.77 in Calm     42 % 0.00 in
00:54 84.2 °F 61.8 °F 29.77 in Calm     47 % 0.00 in
00:59 83.5 °F 61.1 °F 29.76 in Calm     47 % 0.00 in
01:04 83.1 °F 64.7 °F 29.76 in Calm     54 % 0.00 in
01:09 82.5 °F 63.6 °F 29.76 in Calm     53 % 0.00 in
01:14 81.5 °F 62.7 °F 29.76 in Calm     53 % 0.00 in
01:19 81.5 °F 63.3 °F 29.76 in Calm     54 % 0.00 in
01:24 81.5 °F 63.8 °F 29.76 in Calm     55 % 0.00 in
01:29 81.2 °F 64.5 °F 29.76 in NNW 1.2 mph   57 % 0.00 in
01:34 80.7 °F 64.1 °F 29.76 in Calm     57 % 0.00 in
01:39 80.5 °F 64.9 °F 29.77 in Calm     59 % 0.00 in
01:44 80.3 °F 63.7 °F 29.77 in Calm     57 % 0.00 in
01:49 80.1 °F 64.0 °F 29.77 in Calm     58 % 0.00 in
01:54 80.0 °F 65.3 °F 29.77 in Calm     61 % 0.00 in
01:59 79.7 °F 66.0 °F 29.77 in Calm     63 % 0.00 in
02:04 79.4 °F 65.7 °F 29.77 in Calm     63 % 0.00 in
02:09 79.0 °F 65.3 °F 29.78 in Calm     63 % 0.00 in
02:15 78.5 °F 65.3 °F 29.78 in NE 1.2 mph 1.2 mph 64 % 0.00 in
02:20 78.2 °F 64.6 °F 29.78 in Calm     63 % 0.00 in
02:25 78.2 °F 65.0 °F 29.78 in Calm     64 % 0.00 in
02:30 78.1 °F 64.9 °F 29.78 in Calm     64 % 0.00 in
02:35 78.1 °F 65.4 °F 29.77 in Calm     65 % 0.00 in
02:40 77.8 °F 66.0 °F 29.77 in Calm     67 % 0.00 in
02:45 77.5 °F 65.2 °F 29.78 in Calm     66 % 0.00 in
02:50 77.5 °F 65.2 °F 29.78 in Calm     66 % 0.00 in
02:55 77.8 °F 65.5 °F 29.78 in Calm     66 % 0.00 in
03:00 77.9 °F 65.2 °F 29.78 in Calm     65 % 0.00 in
03:05 78.1 °F 65.4 °F 29.78 in Calm     65 % 0.00 in
03:10 78.3 °F 64.2 °F 29.78 in Calm     62 % 0.00 in
03:15 78.3 °F 64.2 °F 29.78 in Calm     62 % 0.00 in
03:20 78.3 °F 64.2 °F 29.78 in Calm     62 % 0.00 in
03:25 78.7 °F 63.6 °F 29.78 in NE 1.2 mph 1.2 mph 60 % 0.00 in
03:30 79.1 °F 63.1 °F 29.77 in Calm     58 % 0.00 in
03:35 79.4 °F 62.3 °F 29.77 in Calm     56 % 0.00 in
03:40 79.9 °F 62.3 °F 29.77 in Calm     55 % 0.00 in
03:45 79.9 °F 61.2 °F 29.78 in Calm     53 % 0.00 in
03:50 80.1 °F 62.5 °F 29.78 in Calm     55 % 0.00 in
03:55 80.0 °F 62.9 °F 29.78 in Calm     56 % 0.00 in
04:05 79.3 °F 63.7 °F 29.78 in Calm     59 % 0.00 in
04:10 79.2 °F 65.1 °F 29.77 in Calm     62 % 0.00 in
04:15 79.2 °F 64.1 °F 29.77 in Calm   0.1 mph 60 % 0.00 in
04:20 79.1 °F 63.5 °F 29.77 in Calm     59 % 0.00 in
04:25 79.0 °F 63.9 °F 29.77 in Calm     60 % 0.00 in
04:30 79.0 °F 62.5 °F 29.77 in Calm     57 % 0.00 in
04:35 79.0 °F 62.0 °F 29.78 in Calm     56 % 0.00 in
04:40 79.2 °F 64.1 °F 29.77 in Calm     60 % 0.00 in
04:45 79.3 °F 66.1 °F 29.77 in Calm     64 % 0.00 in
04:50 79.1 °F 65.0 °F 29.77 in Calm     62 % 0.00 in
04:55 78.8 °F 65.1 °F 29.78 in Calm     63 % 0.00 in
05:00 78.6 °F 65.4 °F 29.78 in Calm     64 % 0.00 in
05:05 78.5 °F 64.9 °F 29.78 in Calm     63 % 0.00 in
05:10 78.2 °F 65.0 °F 29.78 in Calm     64 % 0.00 in
05:15 78.1 °F 64.9 °F 29.78 in Calm     64 % 0.00 in
05:20 77.8 °F 66.4 °F 29.78 in Calm     68 % 0.00 in
05:25 77.2 °F 65.0 °F 29.79 in Calm     66 % 0.00 in
05:30 77.0 °F 65.2 °F 29.79 in Calm     67 % 0.00 in
05:35 76.8 °F 64.1 °F 29.79 in Calm     65 % 0.00 in
05:40 76.6 °F 64.8 °F 29.79 in Calm     67 % 0.00 in
05:45 76.6 °F 64.8 °F 29.79 in Calm     67 % 0.00 in
05:50 76.6 °F 64.8 °F 29.79 in Calm     67 % 0.00 in
05:55 76.7 °F 65.3 °F 29.80 in Calm     68 % 0.00 in
06:00 76.7 °F 65.3 °F 29.80 in Calm     68 % 0.00 in
06:05 76.7 °F 65.3 °F 29.79 in Calm     68 % 0.00 in
06:10 76.7 °F 65.3 °F 29.80 in Calm     68 % 0.00 in
06:15 76.7 °F 65.3 °F 29.80 in Calm     68 % 0.00 in
06:20 76.6 °F 65.2 °F 29.80 in Calm     68 % 0.00 in
06:23 76.5 °F 64.7 °F 29.80 in Calm     67 % 0.00 in
06:28 76.7 °F 64.5 °F 29.80 in Calm     66 % 0.00 in
06:33 76.7 °F 64.5 °F 29.80 in Calm     66 % 0.00 in
06:38 76.9 °F 65.1 °F 29.80 in Calm     67 % 0.00 in
06:43 76.9 °F 65.1 °F 29.80 in Calm     67 % 0.00 in
06:48 76.8 °F 64.6 °F 29.80 in Calm     66 % 0.00 in
06:53 77.3 °F 63.7 °F 29.80 in Calm     63 % 0.00 in
06:58 77.6 °F 64.9 °F 29.80 in Calm     65 % 0.00 in
07:03 77.7 °F 63.6 °F 29.80 in Calm     62 % 0.00 in
07:08 78.1 °F 63.6 °F 29.80 in Calm     61 % 0.00 in
07:13 78.7 °F 65.5 °F 29.80 in Calm     64 % 0.00 in
07:18 79.5 °F 65.8 °F 29.80 in Calm     63 % 0.00 in
07:23 80.7 °F 65.5 °F 29.81 in Calm     60 % 0.00 in
07:28 81.9 °F 67.1 °F 29.81 in Calm     61 % 0.00 in
07:33 82.7 °F 68.8 °F 29.81 in Calm     63 % 0.00 in
07:38 83.4 °F 69.5 °F 29.81 in Calm     63 % 0.00 in
07:43 83.7 °F 69.3 °F 29.81 in Calm     62 % 0.00 in
07:48 83.5 °F 68.6 °F 29.81 in Calm     61 % 0.00 in
07:53 84.0 °F 69.1 °F 29.81 in Calm     61 % 0.00 in
07:58 84.1 °F 68.7 °F 29.81 in Calm     60 % 0.00 in
08:03 84.3 °F 68.4 °F 29.81 in Calm     59 % 0.00 in
08:08 85.7 °F 68.2 °F 29.81 in Calm     56 % 0.00 in
08:13 86.8 °F 67.6 °F 29.81 in NE 1.2 mph   53 % 0.00 in
08:18 87.5 °F 66.6 °F 29.81 in Calm     50 % 0.00 in
08:23 88.4 °F 68.5 °F 29.81 in Calm     52 % 0.00 in
08:28 89.3 °F 68.2 °F 29.81 in SE 1.2 mph 1.2 mph 50 % 0.00 in
08:33 90.4 °F 68.0 °F 29.81 in Calm     48 % 0.00 in
08:38 91.1 °F 65.5 °F 29.82 in Calm   0.1 mph 43 % 0.00 in
08:44 91.4 °F 66.4 °F 29.82 in Calm     44 % 0.00 in
08:49 91.9 °F 66.9 °F 29.81 in Calm     44 % 0.00 in
08:54 92.1 °F 67.7 °F 29.81 in Calm   0.1 mph 45 % 0.00 in
08:59 91.8 °F 67.4 °F 29.81 in WSW 1.2 mph   45 % 0.00 in
09:04 91.8 °F 66.8 °F 29.81 in West 1.2 mph 1.2 mph 44 % 0.00 in
09:09 91.8 °F 68.1 °F 29.81 in West 1.2 mph   46 % 0.00 in
09:14 92.7 °F 66.2 °F 29.82 in West 1.2 mph 1.2 mph 42 % 0.00 in
09:19 92.9 °F 65.7 °F 29.82 in Calm     41 % 0.00 in
09:24 93.1 °F 67.3 °F 29.81 in WNW 1.2 mph 1.2 mph 43 % 0.00 in
09:29 93.5 °F 66.3 °F 29.81 in West 1.2 mph 1.2 mph 41 % 0.00 in
09:34 94.4 °F 68.5 °F 29.82 in Calm     43 % 0.00 in
09:39 94.8 °F 68.1 °F 29.82 in WNW 1.2 mph 1.2 mph 42 % 0.00 in
09:44 94.8 °F 69.5 °F 29.82 in WNW 1.2 mph 1.2 mph 44 % 0.00 in
09:49 95.0 °F 66.9 °F 29.82 in NNW 1.2 mph 1.2 mph 40 % 0.00 in
09:54 95.1 °F 66.2 °F 29.82 in WNW 1.2 mph 1.2 mph 39 % 0.00 in
09:59 95.1 °F 65.5 °F 29.82 in East 2.0 mph 2.0 mph 38 % 0.00 in
10:04 95.8 °F 62.9 °F 29.82 in NNE 1.2 mph 1.2 mph 34 % 0.00 in
10:09 96.2 °F 64.9 °F 29.82 in NNW 1.2 mph 1.2 mph 36 % 0.00 in
10:14 96.4 °F 67.4 °F 29.82 in NW 2.3 mph 2.3 mph 39 % 0.00 in
10:19 96.6 °F 62.8 °F 29.82 in NNW 1.2 mph   33 % 0.00 in
10:24 96.9 °F 63.9 °F 29.82 in NW 1.2 mph   34 % 0.00 in
10:29 97.3 °F 66.7 °F 29.82 in NNE 1.2 mph   37 % 0.00 in
10:34 97.7 °F 65.4 °F 29.82 in NNW 1.2 mph   35 % 0.00 in
10:39 98.0 °F 64.0 °F 29.82 in WNW 2.0 mph 2.0 mph 33 % 0.00 in
10:44 98.2 °F 64.2 °F 29.81 in NW 2.3 mph 2.3 mph 33 % 0.00 in
10:49 98.4 °F 63.5 °F 29.81 in WNW 2.3 mph 2.3 mph 32 % 0.00 in
10:54 98.5 °F 63.6 °F 29.81 in NNW 1.2 mph 1.2 mph 32 % 0.00 in
10:59 98.7 °F 64.6 °F 29.81 in NW 1.0 mph 1.0 mph 33 % 0.00 in
11:04 99.1 °F 62.2 °F 29.81 in WNW 1.2 mph 1.2 mph 30 % 0.00 in
11:09 99.1 °F 63.2 °F 29.81 in West 2.0 mph 2.0 mph 31 % 0.00 in
11:14 99.5 °F 64.4 °F 29.81 in WNW 1.2 mph 1.2 mph 32 % 0.00 in
11:19 99.6 °F 63.6 °F 29.81 in WNW 2.3 mph 2.3 mph 31 % 0.00 in
11:24 99.4 °F 63.4 °F 29.81 in NNE 2.3 mph 2.3 mph 31 % 0.00 in
11:29 99.6 °F 64.5 °F 29.81 in NW 3.5 mph 3.5 mph 32 % 0.00 in
11:30 99.6 °F 65.4 °F 29.81 in NNE 2.0 mph 2.0 mph 33 % 0.00 in
11:35 100.1 °F 64.0 °F 29.80 in NNW 2.3 mph 2.3 mph 31 % 0.00 in
11:40 100.0 °F 63.0 °F 29.80 in NNW 2.3 mph 2.3 mph 30 % 0.00 in
11:45 100.5 °F 64.4 °F 29.80 in WSW 2.3 mph 2.3 mph 31 % 0.00 in
11:50 101.1 °F 64.9 °F 29.80 in East 3.5 mph 3.5 mph 31 % 0.00 in
11:56 101.5 °F 64.3 °F 29.80 in NW 3.5 mph 3.5 mph 30 % 0.00 in
12:01 101.7 °F 64.5 °F 29.80 in NW 4.0 mph 4.0 mph 30 % 0.00 in
12:06 101.8 °F 63.6 °F 29.80 in West 2.3 mph 2.3 mph 29 % 0.00 in
12:11 102.0 °F 62.8 °F 29.80 in NW 2.3 mph 2.3 mph 28 % 0.00 in
12:16 101.8 °F 64.6 °F 29.81 in West 1.2 mph 1.2 mph 30 % 0.00 in
12:21 102.2 °F 63.9 °F 29.81 in SE 3.5 mph 3.5 mph 29 % 0.00 in
12:26 102.4 °F 64.1 °F 29.81 in SSE 2.3 mph 2.3 mph 29 % 0.00 in
12:36 102.8 °F 65.4 °F 29.81 in WNW 2.3 mph 2.3 mph 30 % 0.00 in
12:41 102.9 °F 67.4 °F 29.81 in SSW 4.6 mph 4.6 mph 32 % 0.00 in
12:46 103.2 °F 65.8 °F 29.81 in East 3.5 mph 3.5 mph 30 % 0.00 in
12:51 103.1 °F 65.7 °F 29.81 in SSW 4.0 mph 4.0 mph 30 % 0.00 in
12:56 103.0 °F 64.6 °F 29.82 in SSW 4.6 mph 4.6 mph 29 % 0.00 in
13:01 103.2 °F 66.7 °F 29.82 in SSE 3.5 mph 3.5 mph 31 % 0.00 in
13:06 103.2 °F 64.8 °F 29.82 in East 3.5 mph 3.5 mph 29 % 0.00 in
13:11 103.3 °F 63.9 °F 29.82 in NW 5.8 mph 5.8 mph 28 % 0.00 in
13:16 103.8 °F 63.2 °F 29.82 in SE 2.3 mph 2.3 mph 27 % 0.00 in
13:21 103.4 °F 61.8 °F 29.82 in SSE 4.6 mph 4.6 mph 26 % 0.00 in
13:26 102.7 °F 62.3 °F 29.82 in WNW 1.2 mph 1.2 mph 27 % 0.00 in
13:31 102.9 °F 62.5 °F 29.82 in NW 3.5 mph 3.5 mph 27 % 0.00 in
13:36 103.4 °F 61.8 °F 29.82 in North 2.3 mph 2.3 mph 26 % 0.00 in
13:41 103.0 °F 61.5 °F 29.81 in SSE 4.6 mph 4.6 mph 26 % 0.00 in
13:46 102.6 °F 62.2 °F 29.81 in NW 2.3 mph 2.3 mph 27 % 0.00 in
13:51 102.0 °F 60.7 °F 29.81 in NNW 2.3 mph 2.3 mph 26 % 0.00 in
13:56 101.9 °F 64.6 °F 29.81 in West 1.2 mph 1.2 mph 30 % 0.00 in
14:01 102.6 °F 63.3 °F 29.81 in SSE 2.0 mph 2.0 mph 28 % 0.00 in
14:06 102.8 °F 64.4 °F 29.81 in SE 1.0 mph 1.0 mph 29 % 0.00 in
14:11 102.3 °F 64.0 °F 29.81 in Calm     29 % 0.00 in
14:16 102.2 °F 64.9 °F 29.81 in ENE 1.2 mph 1.2 mph 30 % 0.00 in
14:21 101.8 °F 66.4 °F 29.81 in SSE 1.2 mph 1.2 mph 32 % 0.00 in
14:22 101.8 °F 65.5 °F 29.81 in SSE 1.2 mph 1.2 mph 31 % 0.00 in
14:27 100.8 °F 64.6 °F 29.82 in South 2.3 mph 2.3 mph 31 % 0.00 in
14:32 100.7 °F 65.5 °F 29.82 in ESE 2.3 mph 2.3 mph 32 % 0.00 in
14:37 101.0 °F 64.8 °F 29.81 in SSE 2.3 mph 2.3 mph 31 % 0.00 in
14:42 101.4 °F 66.1 °F 29.81 in WNW 1.2 mph 1.2 mph 32 % 0.00 in
14:47 101.3 °F 66.0 °F 29.81 in NW 1.2 mph   32 % 0.00 in
14:52 101.1 °F 66.7 °F 29.81 in SSE 2.3 mph 2.3 mph 33 % 0.00 in
14:57 100.6 °F 65.4 °F 29.81 in SE 2.3 mph 2.3 mph 32 % 0.00 in
15:02 100.5 °F 64.4 °F 29.80 in ESE 1.2 mph 1.2 mph 31 % 0.00 in
15:07 100.4 °F 64.3 °F 29.80 in ESE 1.2 mph 1.2 mph 31 % 0.00 in
15:12 100.2 °F 64.1 °F 29.80 in ESE 2.3 mph 2.3 mph 31 % 0.00 in
15:17 99.8 °F 63.8 °F 29.80 in South 2.3 mph 2.3 mph 31 % 0.00 in
15:22 99.7 °F 63.7 °F 29.80 in SSE 2.3 mph 2.3 mph 31 % 0.00 in
15:27 99.6 °F 65.4 °F 29.79 in SSE 1.2 mph 1.2 mph 33 % 0.00 in
15:32 99.2 °F 67.6 °F 29.79 in Calm     36 % 0.00 in
15:37 99.0 °F 67.4 °F 29.80 in Calm     36 % 0.00 in
15:42 99.0 °F 67.4 °F 29.80 in South 1.2 mph 1.2 mph 36 % 0.00 in
15:47 98.9 °F 66.5 °F 29.79 in South 1.2 mph   35 % 0.00 in
15:52 99.1 °F 69.8 °F 29.79 in Calm     39 % 0.00 in
15:57 99.1 °F 68.3 °F 29.79 in Calm   0.3 mph 37 % 0.00 in
16:02 98.8 °F 68.0 °F 29.78 in Calm     37 % 0.00 in
16:07 98.7 °F 66.3 °F 29.78 in Calm     35 % 0.00 in
16:12 98.9 °F 67.3 °F 29.78 in Calm     36 % 0.00 in
16:17 99.1 °F 68.3 °F 29.78 in Calm     37 % 0.00 in
16:22 99.1 °F 66.6 °F 29.78 in Calm     35 % 0.00 in
16:27 99.2 °F 67.6 °F 29.79 in SSE 1.2 mph 1.2 mph 36 % 0.00 in
16:32 99.2 °F 69.1 °F 29.78 in Calm     38 % 0.00 in
16:37 99.4 °F 68.5 °F 29.78 in Calm     37 % 0.00 in
16:42 99.7 °F 70.3 °F 29.78 in Calm     39 % 0.00 in
16:47 99.3 °F 67.6 °F 29.78 in SSE 2.3 mph 2.3 mph 36 % 0.00 in
16:52 99.1 °F 69.8 °F 29.78 in Calm     39 % 0.00 in
16:57 98.7 °F 69.4 °F 29.78 in Calm     39 % 0.00 in
17:02 98.4 °F 69.2 °F 29.78 in Calm     39 % 0.00 in
17:07 98.3 °F 67.6 °F 29.78 in SSE 1.2 mph 1.2 mph 37 % 0.00 in
17:11 98.0 °F 67.3 °F 29.78 in SSE 1.2 mph 1.2 mph 37 % 0.00 in
17:16 97.9 °F 66.4 °F 29.78 in SSE 1.2 mph 1.2 mph 36 % 0.00 in
17:21 98.0 °F 66.5 °F 29.78 in SSE 1.2 mph 1.2 mph 36 % 0.00 in
17:26 98.3 °F 66.8 °F 29.77 in SSE 1.2 mph 1.2 mph 36 % 0.00 in
17:31 98.5 °F 66.1 °F 29.77 in Calm     35 % 0.00 in
17:36 98.9 °F 65.6 °F 29.77 in Calm     34 % 0.00 in
17:41 99.3 °F 65.1 °F 29.77 in Calm     33 % 0.00 in
17:46 99.3 °F 66.8 °F 29.77 in Calm     35 % 0.00 in
17:51 98.7 °F 65.5 °F 29.77 in Calm     34 % 0.00 in
17:56 98.4 °F 64.3 °F 29.77 in Calm     33 % 0.00 in
18:01 98.4 °F 62.6 °F 29.77 in Calm     31 % 0.00 in
18:06 98.6 °F 62.7 °F 29.77 in Calm     31 % 0.00 in
18:11 98.5 °F 60.8 °F 29.77 in Calm     29 % 0.00 in
18:16 98.5 °F 63.6 °F 29.77 in Calm     32 % 0.00 in
18:21 98.3 °F 62.5 °F 29.77 in Calm     31 % 0.00 in
18:26 98.2 °F 63.3 °F 29.77 in Calm     32 % 0.00 in
18:31 98.1 °F 64.1 °F 29.77 in Calm     33 % 0.00 in
18:36 97.9 °F 63.9 °F 29.77 in Calm     33 % 0.00 in
18:41 97.8 °F 65.5 °F 29.77 in Calm     35 % 0.00 in
18:44 97.7 °F 64.6 °F 29.77 in Calm     34 % 0.00 in
18:47 97.6 °F 65.3 °F 29.77 in Calm     35 % 0.00 in
18:51 97.3 °F 65.1 °F 29.77 in Calm     35 % 0.00 in
18:56 97.1 °F 65.7 °F 29.78 in Calm     36 % 0.00 in
19:02 96.9 °F 65.5 °F 29.78 in Calm     36 % 0.00 in
19:07 96.5 °F 65.2 °F 29.78 in Calm     36 % 0.00 in
19:12 96.1 °F 65.6 °F 29.78 in Calm     37 % 0.00 in
19:17 95.8 °F 68.3 °F 29.78 in Calm     41 % 0.00 in
19:22 95.4 °F 69.4 °F 29.78 in Calm     43 % 0.00 in
19:27 95.0 °F 67.6 °F 29.78 in Calm     41 % 0.00 in
19:32 94.7 °F 65.9 °F 29.78 in Calm     39 % 0.00 in
19:37 94.5 °F 67.9 °F 29.78 in Calm     42 % 0.00 in
19:42 94.3 °F 68.4 °F 29.78 in Calm     43 % 0.00 in
19:47 93.9 °F 69.3 °F 29.78 in Calm     45 % 0.00 in
19:52 93.2 °F 68.7 °F 29.78 in Calm     45 % 0.00 in
19:57 92.9 °F 68.4 °F 29.78 in Calm     45 % 0.00 in
20:02 92.7 °F 69.5 °F 29.78 in Calm     47 % 0.00 in
20:07 92.4 °F 67.3 °F 29.78 in Calm     44 % 0.00 in
20:14 92.2 °F 69.1 °F 29.78 in Calm     47 % 0.00 in
20:19 92.2 °F 67.8 °F 29.78 in Calm     45 % 0.00 in
20:24 92.2 °F 68.4 °F 29.78 in Calm     46 % 0.00 in
20:25 92.2 °F 68.4 °F 29.78 in Calm     46 % 0.00 in
20:26 92.2 °F 69.1 °F 29.78 in Calm     47 % 0.00 in
20:31 91.9 °F 74.0 °F 29.78 in Calm     56 % 0.00 in
20:32 91.8 °F 74.4 °F 29.78 in Calm     57 % 0.00 in
20:37 90.9 °F 73.6 °F 29.77 in WNW 1.2 mph 1.2 mph 57 % 0.00 in
20:42 90.4 °F 73.6 °F 29.77 in WNW 1.2 mph 1.2 mph 58 % 0.00 in
20:47 89.8 °F 73.6 °F 29.78 in Calm     59 % 0.00 in
20:52 89.4 °F 73.2 °F 29.78 in WNW 1.0 mph 1.0 mph 59 % 0.00 in
20:57 89.2 °F 72.5 °F 29.77 in Calm     58 % 0.00 in
21:02 89.2 °F 71.5 °F 29.77 in Calm     56 % 0.00 in
21:07 89.2 °F 73.0 °F 29.78 in Calm     59 % 0.00 in
21:12 88.7 °F 73.5 °F 29.78 in Calm     61 % 0.00 in
21:17 88.3 °F 72.7 °F 29.79 in Calm     60 % 0.00 in
21:22 88.0 °F 72.4 °F 29.79 in Calm     60 % 0.00 in
21:27 88.1 °F 72.0 °F 29.79 in Calm     59 % 0.00 in
21:32 88.7 °F 68.8 °F 29.80 in WNW 1.2 mph 1.2 mph 52 % 0.00 in
21:37 90.0 °F 67.7 °F 29.80 in Calm     48 % 0.00 in
21:42 90.8 °F 67.2 °F 29.80 in Calm     46 % 0.00 in
21:47 91.0 °F 66.1 °F 29.80 in WNW 1.2 mph   44 % 0.00 in
21:52 91.3 °F 65.7 °F 29.79 in NNW 1.2 mph   43 % 0.00 in
21:57 91.5 °F 65.8 °F 29.80 in WNW 1.2 mph   43 % 0.00 in
22:02 91.8 °F 65.4 °F 29.79 in Calm     42 % 0.00 in
22:07 91.9 °F 66.9 °F 29.79 in Calm     44 % 0.00 in
22:12 91.3 °F 67.6 °F 29.79 in WNW 1.2 mph   46 % 0.00 in
22:17 90.2 °F 68.5 °F 29.79 in Calm     49 % 0.00 in
22:22 89.2 °F 68.7 °F 29.78 in Calm     51 % 0.00 in
22:27 88.2 °F 68.4 °F 29.78 in Calm     52 % 0.00 in
22:29 87.9 °F 69.2 °F 29.78 in Calm     54 % 0.00 in
22:34 87.2 °F 69.6 °F 29.78 in Calm     56 % 0.00 in
22:39 86.5 °F 69.5 °F 29.78 in Calm     57 % 0.00 in
22:44 85.9 °F 70.4 °F 29.79 in SSE 1.2 mph   60 % 0.00 in
22:49 85.4 °F 69.9 °F 29.79 in Calm     60 % 0.00 in
22:54 85.1 °F 69.7 °F 29.79 in Calm     60 % 0.00 in
22:59 85.0 °F 69.6 °F 29.80 in Calm     60 % 0.00 in
23:04 85.0 °F 69.1 °F 29.80 in Calm     59 % 0.00 in
23:09 85.1 °F 69.2 °F 29.80 in Calm     59 % 0.00 in
23:14 85.2 °F 69.3 °F 29.81 in Calm     59 % 0.00 in
23:19 85.3 °F 69.3 °F 29.80 in SE 1.2 mph 1.2 mph 59 % 0.00 in
23:24 85.3 °F 68.8 °F 29.80 in SE 1.2 mph   58 % 0.00 in
23:29 85.3 °F 68.3 °F 29.81 in SE 2.3 mph 2.3 mph 57 % 0.00 in
23:30 85.3 °F 68.3 °F 29.81 in SE 1.2 mph   57 % 0.00 in
23:35 85.3 °F 67.8 °F 29.81 in Calm     56 % 0.00 in
23:40 85.1 °F 67.1 °F 29.81 in SE 1.2 mph 1.2 mph 55 % 0.00 in
23:45 85.1 °F 67.1 °F 29.81 in Calm     55 % 0.00 in
23:50 85.2 °F 66.7 °F 29.81 in Calm   0.1 mph 54 % 0.00 in
23:55 85.3 °F 66.2 °F 29.82 in ESE 1.2 mph 1.2 mph 53 % 0.00 in
Park Place, Exeter, Tulare County, California, USA
Compliments of Weather Underground - 2.75 mb